createdAt,value
2017-10-11T00:00:30.061Z,0
2017-10-11T00:01:30.794Z,0
2017-10-11T00:02:31.531Z,0
2017-10-11T00:03:32.271Z,0
2017-10-11T00:04:33.312Z,0
2017-10-11T00:05:34.041Z,0
2017-10-11T00:06:34.783Z,0
2017-10-11T00:07:35.600Z,0
2017-10-11T00:08:36.330Z,0
2017-10-11T00:09:37.491Z,0
2017-10-11T00:10:38.277Z,0
2017-10-11T00:11:39.057Z,0
2017-10-11T00:12:39.818Z,0
2017-10-11T00:13:40.580Z,0
2017-10-11T00:14:41.407Z,0
2017-10-11T00:15:42.146Z,0
2017-10-11T00:16:42.877Z,0
2017-10-11T00:17:43.621Z,0
2017-10-11T00:18:44.355Z,0
2017-10-11T00:19:45.198Z,0
2017-10-11T00:20:46.003Z,0
2017-10-11T00:21:46.791Z,0
2017-10-11T00:22:47.516Z,0
2017-10-11T00:23:48.254Z,0
2017-10-11T00:24:49.430Z,0
2017-10-11T00:25:50.162Z,0
2017-10-11T00:26:50.974Z,0
2017-10-11T00:27:51.753Z,0
2017-10-11T00:28:52.478Z,0
2017-10-11T00:29:53.557Z,0
2017-10-11T00:30:54.285Z,0
2017-10-11T00:31:55.026Z,0
2017-10-11T00:32:55.756Z,0
2017-10-11T00:33:56.494Z,0
2017-10-11T00:34:57.332Z,0
2017-10-11T00:35:58.089Z,0
2017-10-11T00:36:58.883Z,0
2017-10-11T00:37:59.717Z,0
2017-10-11T00:39:00.523Z,0
2017-10-11T00:40:01.606Z,0
2017-10-11T00:41:02.383Z,0
2017-10-11T00:42:03.114Z,0
2017-10-11T00:43:03.916Z,0
2017-10-11T00:44:04.651Z,0
2017-10-11T00:45:05.417Z,0
2017-10-11T00:46:06.157Z,0
2017-10-11T00:47:06.958Z,0
2017-10-11T00:48:07.694Z,0
2017-10-11T00:49:08.478Z,0
2017-10-11T00:50:09.271Z,0
2017-10-11T00:51:10.078Z,0
2017-10-11T00:52:10.876Z,0
2017-10-11T00:53:11.602Z,0
2017-10-11T00:54:12.329Z,0
2017-10-11T00:55:13.380Z,0
2017-10-11T00:56:14.122Z,0
2017-10-11T00:57:14.852Z,0
2017-10-11T00:58:15.588Z,0
2017-10-11T00:59:16.333Z,0
2017-10-11T01:00:17.418Z,0
2017-10-11T01:01:18.139Z,0
2017-10-11T01:02:18.879Z,0
2017-10-11T01:03:19.669Z,0
2017-10-11T01:04:20.412Z,0
2017-10-11T01:05:21.556Z,0
2017-10-11T01:06:22.343Z,0
2017-10-11T01:07:23.145Z,0
2017-10-11T01:08:23.879Z,0
2017-10-11T01:09:24.609Z,0
2017-10-11T01:10:25.738Z,0
2017-10-11T01:11:26.493Z,0
2017-10-11T01:12:27.280Z,0
2017-10-11T01:13:28.065Z,0
2017-10-11T01:14:28.863Z,0
2017-10-11T01:15:29.636Z,0
2017-10-11T01:16:30.444Z,0
2017-10-11T01:17:31.184Z,0
2017-10-11T01:18:31.950Z,0
2017-10-11T01:19:33.031Z,0
2017-10-11T01:20:33.841Z,0
2017-10-11T01:21:34.639Z,0
2017-10-11T01:22:35.430Z,0
2017-10-11T01:23:36.243Z,0
2017-10-11T01:24:37.390Z,0
2017-10-11T01:25:38.111Z,0
2017-10-11T01:26:38.844Z,0
2017-10-11T01:27:39.628Z,0
2017-10-11T01:28:40.408Z,0
2017-10-11T01:29:41.444Z,0
2017-10-11T01:30:42.170Z,0
2017-10-11T01:31:42.914Z,0
2017-10-11T01:32:43.689Z,0
2017-10-11T01:33:44.429Z,0
2017-10-11T01:34:45.205Z,0
2017-10-11T01:35:45.931Z,0
2017-10-11T01:36:47.007Z,0
2017-10-11T01:37:47.742Z,0
2017-10-11T01:38:48.481Z,0
2017-10-11T01:39:49.222Z,0
2017-10-11T01:40:50.034Z,0
2017-10-11T01:41:50.807Z,0
2017-10-11T01:42:51.601Z,0
2017-10-11T01:43:52.338Z,0
2017-10-11T01:44:53.123Z,0
2017-10-11T01:45:53.866Z,0
2017-10-11T01:46:54.776Z,0
2017-10-11T01:47:55.584Z,0
2017-10-11T01:48:56.311Z,0
2017-10-11T01:49:57.045Z,0
2017-10-11T01:50:57.775Z,0
2017-10-11T01:51:58.814Z,0
2017-10-11T01:52:59.547Z,0
2017-10-11T01:54:00.286Z,0
2017-10-11T01:55:01.092Z,0
2017-10-11T01:56:01.894Z,0
2017-10-11T01:57:02.977Z,0
2017-10-11T01:58:03.767Z,0
2017-10-11T01:59:04.525Z,0
2017-10-11T02:00:05.265Z,0
2017-10-11T02:01:05.995Z,0
2017-10-11T02:02:07.062Z,0
2017-10-11T02:03:07.875Z,0
2017-10-11T02:04:08.605Z,0
2017-10-11T02:05:09.398Z,0
2017-10-11T02:06:10.209Z,0
2017-10-11T02:07:10.943Z,0
2017-10-11T02:08:11.670Z,0
2017-10-11T02:09:12.476Z,0
2017-10-11T02:10:13.349Z,0
2017-10-11T02:11:14.119Z,0
2017-10-11T02:12:14.888Z,0
2017-10-11T02:13:15.607Z,0
2017-10-11T02:14:16.338Z,0
2017-10-11T02:15:17.378Z,0
2017-10-11T02:16:18.109Z,0
2017-10-11T02:17:18.912Z,0
2017-10-11T02:18:19.647Z,0
2017-10-11T02:19:20.444Z,0
2017-10-11T02:20:21.231Z,0
2017-10-11T02:21:21.962Z,0
2017-10-11T02:22:22.784Z,0
2017-10-11T02:23:23.581Z,0
2017-10-11T02:24:24.382Z,0
2017-10-11T02:25:25.516Z,0
2017-10-11T02:26:26.294Z,0
2017-10-11T02:27:27.085Z,0
2017-10-11T02:28:27.819Z,0
2017-10-11T02:29:28.559Z,0
2017-10-11T02:30:29.456Z,0
2017-10-11T02:31:30.188Z,0
2017-10-11T02:32:30.933Z,0
2017-10-11T02:33:31.652Z,0
2017-10-11T02:34:32.387Z,0
2017-10-11T02:35:33.547Z,0
2017-10-11T02:36:34.301Z,0
2017-10-11T02:37:35.045Z,0
2017-10-11T02:38:35.829Z,0
2017-10-11T02:39:36.605Z,0
2017-10-11T02:40:37.466Z,0
2017-10-11T02:41:38.280Z,0
2017-10-11T02:42:39.083Z,0
2017-10-11T02:43:39.895Z,0
2017-10-11T02:44:40.678Z,0
2017-10-11T02:45:41.713Z,0
2017-10-11T02:46:42.468Z,0
2017-10-11T02:47:43.206Z,0
2017-10-11T02:48:43.998Z,0
2017-10-11T02:49:44.739Z,0
2017-10-11T02:50:45.816Z,0
2017-10-11T02:51:46.533Z,0
2017-10-11T02:52:47.298Z,0
2017-10-11T02:53:48.029Z,0
2017-10-11T02:54:48.758Z,0
2017-10-11T02:55:49.902Z,0
2017-10-11T02:56:50.689Z,0
2017-10-11T02:57:51.423Z,0
2017-10-11T02:58:52.156Z,0
2017-10-11T02:59:52.877Z,0
2017-10-11T03:00:53.663Z,0
2017-10-11T03:01:54.487Z,0
2017-10-11T03:02:55.212Z,0
2017-10-11T03:03:55.942Z,0
2017-10-11T03:04:56.674Z,0
2017-10-11T03:05:57.838Z,0
2017-10-11T03:06:58.653Z,0
2017-10-11T03:07:59.383Z,0
2017-10-11T03:09:00.175Z,0
2017-10-11T03:10:00.913Z,0
2017-10-11T03:11:01.958Z,0
2017-10-11T03:12:02.737Z,0
2017-10-11T03:13:03.458Z,0
2017-10-11T03:14:04.192Z,0
2017-10-11T03:15:04.926Z,0
2017-10-11T03:16:05.961Z,0
2017-10-11T03:17:06.689Z,0
2017-10-11T03:18:07.429Z,0
2017-10-11T03:19:08.163Z,0
2017-10-11T03:20:08.959Z,0
2017-10-11T03:21:09.941Z,0
2017-10-11T03:22:10.682Z,0
2017-10-11T03:23:11.427Z,0
2017-10-11T03:24:12.248Z,0
2017-10-11T03:25:13.024Z,0
2017-10-11T03:26:13.879Z,0
2017-10-11T03:27:14.663Z,0
2017-10-11T03:28:15.491Z,0
2017-10-11T03:29:16.231Z,0
2017-10-11T03:30:16.952Z,0
2017-10-11T03:31:18.032Z,0
2017-10-11T03:32:18.763Z,0
2017-10-11T03:33:19.507Z,0
2017-10-11T03:34:20.316Z,0
2017-10-11T03:35:21.099Z,0
2017-10-11T03:36:22.264Z,0
2017-10-11T03:37:22.992Z,0
2017-10-11T03:38:23.729Z,0
2017-10-11T03:39:24.463Z,0
2017-10-11T03:40:25.203Z,0
2017-10-11T03:41:26.238Z,0
2017-10-11T03:42:27.017Z,0
2017-10-11T03:43:27.752Z,0
2017-10-11T03:44:28.479Z,0
2017-10-11T03:45:29.223Z,0
2017-10-11T03:46:30.006Z,0
2017-10-11T03:47:30.823Z,0
2017-10-11T03:48:31.562Z,0
2017-10-11T03:49:32.289Z,0
2017-10-11T03:50:33.023Z,0
2017-10-11T03:51:33.844Z,0
2017-10-11T03:52:34.952Z,0
2017-10-11T03:53:35.702Z,0
2017-10-11T03:54:36.437Z,0
2017-10-11T03:55:37.241Z,0
2017-10-11T03:56:37.979Z,0
2017-10-11T03:57:39.008Z,0
2017-10-11T03:58:39.744Z,0
2017-10-11T03:59:40.481Z,0
2017-10-11T04:00:41.247Z,0
2017-10-11T04:01:41.968Z,0
2017-10-11T04:02:42.984Z,0
2017-10-11T04:03:43.806Z,0
2017-10-11T04:04:44.734Z,0
2017-10-11T04:05:45.467Z,0
2017-10-11T04:06:46.198Z,0
2017-10-11T04:07:47.178Z,0
2017-10-11T04:08:47.901Z,0
2017-10-11T04:09:48.708Z,0
2017-10-11T04:10:49.473Z,0
2017-10-11T04:11:50.265Z,0
2017-10-11T04:12:50.988Z,0
2017-10-11T04:13:51.717Z,0
2017-10-11T04:14:52.495Z,0
2017-10-11T04:15:53.288Z,0
2017-10-11T04:16:54.059Z,0
2017-10-11T04:17:55.212Z,0
2017-10-11T04:18:55.943Z,0
2017-10-11T04:19:56.675Z,0
2017-10-11T04:20:57.393Z,0
2017-10-11T04:21:58.191Z,0
2017-10-11T04:22:58.973Z,0
2017-10-11T04:23:59.776Z,0
2017-10-11T04:25:00.522Z,0
2017-10-11T04:26:01.308Z,0
2017-10-11T04:27:02.022Z,0
2017-10-11T04:28:03.044Z,0
2017-10-11T04:29:03.764Z,0
2017-10-11T04:30:04.583Z,0
2017-10-11T04:31:05.319Z,0
2017-10-11T04:32:06.049Z,0
2017-10-11T04:33:07.183Z,0
2017-10-11T04:34:07.978Z,0
2017-10-11T04:35:08.704Z,0
2017-10-11T04:36:09.444Z,0
2017-10-11T04:37:10.208Z,0
2017-10-11T04:38:11.301Z,0
2017-10-11T04:39:12.062Z,0
2017-10-11T04:40:12.869Z,0
2017-10-11T04:41:13.658Z,0
2017-10-11T04:42:14.402Z,0
2017-10-11T04:43:15.433Z,0
2017-10-11T04:44:16.172Z,0
2017-10-11T04:45:16.910Z,0
2017-10-11T04:46:17.688Z,0
2017-10-11T04:47:18.424Z,0
2017-10-11T04:48:19.253Z,0
2017-10-11T04:49:19.986Z,0
2017-10-11T04:50:20.708Z,0
2017-10-11T04:51:21.438Z,0
2017-10-11T04:52:22.176Z,0
2017-10-11T04:53:23.206Z,0
2017-10-11T04:54:23.932Z,0
2017-10-11T04:55:24.650Z,0
2017-10-11T04:56:25.379Z,0
2017-10-11T04:57:26.119Z,0
2017-10-11T04:58:27.288Z,0
2017-10-11T04:59:28.008Z,0
2017-10-11T05:00:28.741Z,0
2017-10-11T05:01:29.474Z,0
2017-10-11T05:02:30.278Z,0
2017-10-11T05:03:31.403Z,0
2017-10-11T05:04:32.128Z,0
2017-10-11T05:05:32.863Z,0
2017-10-11T05:06:33.607Z,0
2017-10-11T05:07:34.348Z,0
2017-10-11T05:08:35.386Z,0
2017-10-11T05:09:36.163Z,0
2017-10-11T05:10:36.898Z,0
2017-10-11T05:11:37.692Z,0
2017-10-11T05:12:38.419Z,0
2017-10-11T05:13:39.548Z,0
2017-10-11T05:14:40.280Z,0
2017-10-11T05:15:41.019Z,0
2017-10-11T05:16:41.787Z,0
2017-10-11T05:17:42.574Z,0
2017-10-11T05:18:43.731Z,0
2017-10-11T05:19:44.473Z,0
2017-10-11T05:20:45.203Z,0
2017-10-11T05:21:45.929Z,0
2017-10-11T05:22:46.755Z,0
2017-10-11T05:23:47.863Z,0
2017-10-11T05:24:48.604Z,0
2017-10-11T05:25:49.338Z,0
2017-10-11T05:26:50.115Z,0
2017-10-11T05:27:50.848Z,0
2017-10-11T05:28:52.107Z,0
2017-10-11T05:29:52.852Z,0
2017-10-11T05:30:53.590Z,0
2017-10-11T05:31:54.329Z,0
2017-10-11T05:32:55.099Z,0
2017-10-11T05:33:55.890Z,0
2017-10-11T05:34:56.624Z,0
2017-10-11T05:35:57.361Z,0
2017-10-11T05:36:58.093Z,0
2017-10-11T05:37:58.824Z,0
2017-10-11T05:38:59.853Z,0
2017-10-11T05:40:00.603Z,0
2017-10-11T05:41:01.342Z,0
2017-10-11T05:42:02.064Z,0
2017-10-11T05:43:02.806Z,0
2017-10-11T05:44:03.601Z,0
2017-10-11T05:45:04.392Z,0
2017-10-11T05:46:05.109Z,5
2017-10-11T05:47:05.841Z,5
2017-10-11T05:48:06.592Z,5
2017-10-11T05:49:07.382Z,0
2017-10-11T05:50:08.222Z,0
2017-10-11T05:51:08.959Z,0
2017-10-11T05:52:09.695Z,0
2017-10-11T05:53:10.536Z,0
2017-10-11T05:54:11.310Z,5
2017-10-11T05:55:12.390Z,5
2017-10-11T05:56:13.211Z,5
2017-10-11T05:57:13.984Z,5
2017-10-11T05:58:14.725Z,5
2017-10-11T05:59:15.542Z,5
2017-10-11T06:00:16.533Z,5
2017-10-11T06:01:17.275Z,5
2017-10-11T06:02:17.990Z,11
2017-10-11T06:03:18.799Z,11
2017-10-11T06:04:19.535Z,11
2017-10-11T06:05:20.299Z,11
2017-10-11T06:06:21.035Z,11
2017-10-11T06:07:21.773Z,11
2017-10-11T06:08:22.804Z,11
2017-10-11T06:09:23.538Z,11
2017-10-11T06:10:24.359Z,11
2017-10-11T06:11:25.159Z,11
2017-10-11T06:12:25.963Z,16
2017-10-11T06:13:28.659Z,16
2017-10-11T06:14:29.688Z,16
2017-10-11T06:15:30.382Z,16
2017-10-11T06:16:31.120Z,16
2017-10-11T06:17:31.869Z,16
2017-10-11T06:18:32.960Z,16
2017-10-11T06:19:33.690Z,16
2017-10-11T06:20:34.450Z,22
2017-10-11T06:21:35.195Z,22
2017-10-11T06:22:35.924Z,28
2017-10-11T06:23:36.736Z,28
2017-10-11T06:24:37.563Z,39
2017-10-11T06:25:38.300Z,39
2017-10-11T06:26:39.083Z,33
2017-10-11T06:27:39.913Z,33
2017-10-11T06:28:40.680Z,39
2017-10-11T06:29:41.415Z,33
2017-10-11T06:30:42.169Z,39
2017-10-11T06:31:43.291Z,50
2017-10-11T06:32:44.048Z,61
2017-10-11T06:33:44.779Z,50
2017-10-11T06:34:45.504Z,45
2017-10-11T06:35:46.245Z,56
2017-10-11T06:36:47.331Z,73
2017-10-11T06:37:48.064Z,67
2017-10-11T06:38:48.794Z,61
2017-10-11T06:39:49.543Z,67
2017-10-11T06:40:50.288Z,61
2017-10-11T06:41:51.474Z,61
2017-10-11T06:42:52.216Z,50
2017-10-11T06:43:53.008Z,61
2017-10-11T06:44:53.739Z,67
2017-10-11T06:45:54.470Z,56
2017-10-11T06:46:55.305Z,50
2017-10-11T06:47:56.122Z,61
2017-10-11T06:48:56.861Z,67
2017-10-11T06:49:57.651Z,78
2017-10-11T06:50:58.457Z,61
2017-10-11T06:51:59.610Z,50
2017-10-11T06:53:00.401Z,50
2017-10-11T06:54:01.183Z,56
2017-10-11T06:55:01.909Z,67
2017-10-11T06:56:02.647Z,67
2017-10-11T06:57:03.693Z,67
2017-10-11T06:58:04.429Z,73
2017-10-11T06:59:05.169Z,78
2017-10-11T07:00:05.958Z,90
2017-10-11T07:01:06.699Z,118
2017-10-11T07:02:07.874Z,106
2017-10-11T07:03:08.620Z,106
2017-10-11T07:04:09.403Z,106
2017-10-11T07:05:10.160Z,135
2017-10-11T07:06:10.942Z,191
2017-10-11T07:07:11.667Z,230
2017-10-11T07:08:12.398Z,196
2017-10-11T07:09:13.478Z,180
2017-10-11T07:10:14.209Z,157
2017-10-11T07:11:15.012Z,129
2017-10-11T07:12:15.731Z,180
2017-10-11T07:13:16.497Z,163
2017-10-11T07:14:17.698Z,157
2017-10-11T07:15:18.436Z,174
2017-10-11T07:16:19.176Z,196
2017-10-11T07:17:19.982Z,264
2017-10-11T07:18:20.787Z,230
2017-10-11T07:19:21.635Z,163
2017-10-11T07:20:22.431Z,140
2017-10-11T07:21:23.167Z,168
2017-10-11T07:22:23.914Z,202
2017-10-11T07:23:24.698Z,168
2017-10-11T07:24:25.861Z,135
2017-10-11T07:25:26.632Z,157
2017-10-11T07:26:27.383Z,247
2017-10-11T07:27:28.171Z,292
2017-10-11T07:28:28.898Z,303
2017-10-11T07:29:30.052Z,236
2017-10-11T07:30:30.859Z,219
2017-10-11T07:31:31.668Z,191
2017-10-11T07:32:32.406Z,320
2017-10-11T07:33:33.138Z,298
2017-10-11T07:34:34.227Z,236
2017-10-11T07:35:34.961Z,298
2017-10-11T07:36:35.700Z,320
2017-10-11T07:37:36.493Z,219
2017-10-11T07:38:37.249Z,196
2017-10-11T07:39:38.096Z,185
2017-10-11T07:41:53.107Z,151
2017-10-11T07:42:53.841Z,146
2017-10-11T07:43:54.661Z,168
2017-10-11T07:44:55.759Z,146
2017-10-11T07:45:56.582Z,163
2017-10-11T07:46:57.404Z,157
2017-10-11T07:47:58.145Z,140
2017-10-11T07:48:58.990Z,151
2017-10-11T07:50:00.112Z,174
2017-10-11T07:51:00.917Z,163
2017-10-11T07:52:01.647Z,135
2017-10-11T07:53:02.393Z,140
2017-10-11T07:54:03.171Z,140
2017-10-11T07:55:03.999Z,123
2017-10-11T07:56:04.755Z,129
2017-10-11T07:57:05.526Z,129
2017-10-11T07:58:06.275Z,123
2017-10-11T07:59:07.113Z,185
2017-10-11T08:00:07.940Z,213
2017-10-11T08:01:08.670Z,241
2017-10-11T08:02:09.484Z,225
2017-10-11T08:03:10.285Z,163
2017-10-11T08:04:11.110Z,140
2017-10-11T08:05:12.240Z,196
2017-10-11T08:06:12.986Z,253
2017-10-11T08:07:13.772Z,225
2017-10-11T08:08:14.518Z,213
2017-10-11T08:09:15.268Z,258
2017-10-11T08:10:16.654Z,230
2017-10-11T08:11:17.455Z,286
2017-10-11T08:12:18.301Z,303
2017-10-11T08:13:19.100Z,264
2017-10-11T08:14:19.905Z,236
2017-10-11T08:15:21.682Z,202
2017-10-11T08:16:22.403Z,225
2017-10-11T08:17:23.140Z,298
2017-10-11T08:18:23.953Z,315
2017-10-11T08:19:24.690Z,286
2017-10-11T08:20:26.168Z,286
2017-10-11T08:21:27.105Z,247
2017-10-11T08:22:27.844Z,281
2017-10-11T08:23:28.580Z,213
2017-10-11T08:24:29.330Z,270
2017-10-11T08:25:30.486Z,270
2017-10-11T08:26:31.218Z,286
2017-10-11T08:27:31.961Z,320
2017-10-11T08:28:32.765Z,275
2017-10-11T08:29:33.550Z,348
2017-10-11T08:30:34.745Z,343
2017-10-11T08:31:35.485Z,275
2017-10-11T08:32:36.216Z,264
2017-10-11T08:33:37.012Z,241
2017-10-11T08:34:37.816Z,292
2017-10-11T08:35:38.600Z,360
2017-10-11T08:36:39.349Z,360
2017-10-11T08:37:40.163Z,382
2017-10-11T08:38:40.986Z,382
2017-10-11T08:39:41.801Z,309
2017-10-11T08:40:42.904Z,315
2017-10-11T08:41:43.660Z,360
2017-10-11T08:42:44.425Z,393
2017-10-11T08:43:45.162Z,455
2017-10-11T08:44:45.951Z,596
2017-10-11T08:45:47.043Z,388
2017-10-11T08:46:47.770Z,405
2017-10-11T08:47:48.514Z,354
2017-10-11T08:48:49.298Z,343
2017-10-11T08:49:50.032Z,292
2017-10-11T08:50:51.250Z,191
2017-10-11T08:51:51.985Z,236
2017-10-11T08:52:52.730Z,309
2017-10-11T08:53:53.536Z,298
2017-10-11T08:54:54.278Z,309
2017-10-11T08:55:55.304Z,303
2017-10-11T08:56:56.049Z,354
2017-10-11T08:57:56.799Z,326
2017-10-11T08:58:57.525Z,410
2017-10-11T08:59:58.279Z,433
2017-10-11T09:00:59.318Z,450
2017-10-11T09:02:00.055Z,444
2017-10-11T09:03:00.785Z,517
2017-10-11T09:04:01.515Z,489
2017-10-11T09:05:02.258Z,551
2017-10-11T09:06:03.337Z,607
2017-10-11T09:07:04.066Z,523
2017-10-11T09:08:04.874Z,466
2017-10-11T09:09:05.613Z,399
2017-10-11T09:10:06.397Z,388
2017-10-11T09:11:07.233Z,354
2017-10-11T09:12:07.975Z,343
2017-10-11T09:13:08.784Z,298
2017-10-11T09:14:09.538Z,320
2017-10-11T09:15:10.326Z,444
2017-10-11T09:16:11.148Z,382
2017-10-11T09:17:11.888Z,286
2017-10-11T09:18:12.615Z,309
2017-10-11T09:19:13.345Z,258
2017-10-11T09:20:14.088Z,292
2017-10-11T09:21:14.829Z,326
2017-10-11T09:22:15.638Z,309
2017-10-11T09:23:16.734Z,309
2017-10-11T09:24:17.529Z,337
2017-10-11T09:25:18.338Z,444
2017-10-11T09:26:19.075Z,523
2017-10-11T09:27:19.806Z,450
2017-10-11T09:28:20.849Z,551
2017-10-11T09:29:21.663Z,568
2017-10-11T09:30:22.398Z,686
2017-10-11T09:31:23.130Z,658
2017-10-11T09:32:23.929Z,686
2017-10-11T09:33:24.968Z,517
2017-10-11T09:34:25.708Z,506
2017-10-11T09:35:26.521Z,511
2017-10-11T09:36:27.297Z,556
2017-10-11T09:37:28.049Z,556
2017-10-11T09:38:29.143Z,601
2017-10-11T09:39:29.919Z,607
2017-10-11T09:40:30.666Z,663
2017-10-11T09:41:31.406Z,776
2017-10-11T09:42:32.200Z,613
2017-10-11T09:43:33.237Z,573
2017-10-11T09:44:34.043Z,658
2017-10-11T09:45:34.782Z,618
2017-10-11T09:46:35.591Z,579
2017-10-11T09:47:36.322Z,573
2017-10-11T09:48:37.171Z,450
2017-10-11T09:49:37.900Z,427
2017-10-11T09:50:38.645Z,545
2017-10-11T09:51:39.388Z,551
2017-10-11T09:52:40.133Z,540
2017-10-11T09:53:41.226Z,523
2017-10-11T09:54:42.055Z,427
2017-10-11T09:55:42.842Z,354
2017-10-11T09:56:43.647Z,461
2017-10-11T09:57:44.464Z,495
2017-10-11T09:58:45.303Z,630
2017-10-11T09:59:46.050Z,630
2017-10-11T10:00:46.804Z,601
2017-10-11T10:01:47.541Z,630
2017-10-11T10:02:48.279Z,697
2017-10-11T10:03:49.418Z,736
2017-10-11T10:04:50.230Z,759
2017-10-11T10:05:51.026Z,815
2017-10-11T10:06:51.770Z,714
2017-10-11T10:07:52.514Z,528
2017-10-11T10:08:53.651Z,483
2017-10-11T10:09:54.457Z,433
2017-10-11T10:10:55.282Z,410
2017-10-11T10:11:56.027Z,455
2017-10-11T10:12:56.800Z,416
2017-10-11T10:13:57.886Z,421
2017-10-11T10:14:58.621Z,517
2017-10-11T10:15:59.416Z,545
2017-10-11T10:17:00.230Z,630
2017-10-11T10:18:00.967Z,697
2017-10-11T10:19:02.011Z,680
2017-10-11T10:20:02.761Z,585
2017-10-11T10:21:03.504Z,601
2017-10-11T10:22:04.239Z,618
2017-10-11T10:23:05.027Z,663
2017-10-11T10:24:06.112Z,624
2017-10-11T10:25:06.852Z,613
2017-10-11T10:26:07.577Z,691
2017-10-11T10:27:08.320Z,669
2017-10-11T10:28:09.057Z,781
2017-10-11T10:29:10.113Z,815
2017-10-11T10:30:10.878Z,928
2017-10-11T10:31:11.613Z,770
2017-10-11T10:32:12.353Z,641
2017-10-11T10:33:13.175Z,545
2017-10-11T10:34:14.168Z,545
2017-10-11T10:35:14.913Z,607
2017-10-11T10:36:15.734Z,545
2017-10-11T10:37:16.463Z,455
2017-10-11T10:38:17.238Z,376
2017-10-11T10:39:18.275Z,450
2017-10-11T10:40:19.011Z,393
2017-10-11T10:41:19.814Z,393
2017-10-11T10:42:20.607Z,410
2017-10-11T10:43:21.388Z,416
2017-10-11T10:44:22.478Z,450
2017-10-11T10:45:23.233Z,444
2017-10-11T10:46:23.961Z,348
2017-10-11T10:47:24.756Z,348
2017-10-11T10:48:25.563Z,405
2017-10-11T10:49:26.342Z,421
2017-10-11T10:50:27.084Z,478
2017-10-11T10:51:27.880Z,489
2017-10-11T10:52:28.612Z,523
2017-10-11T10:53:29.350Z,517
2017-10-11T10:54:30.715Z,478
2017-10-11T10:55:31.522Z,466
2017-10-11T10:56:32.411Z,455
2017-10-11T10:57:33.226Z,444
2017-10-11T10:58:34.027Z,376
2017-10-11T10:59:35.193Z,348
2017-10-11T11:00:35.928Z,365
2017-10-11T11:01:36.688Z,360
2017-10-11T11:02:37.453Z,348
2017-10-11T11:03:38.184Z,360
2017-10-11T11:04:39.228Z,315
2017-10-11T11:05:40.019Z,281
2017-10-11T11:06:40.761Z,348
2017-10-11T11:07:41.555Z,309
2017-10-11T11:08:42.288Z,264
2017-10-11T11:09:43.327Z,281
2017-10-11T11:10:44.073Z,281
2017-10-11T11:11:44.822Z,258
2017-10-11T11:12:45.551Z,264
2017-10-11T11:13:46.298Z,298
2017-10-11T11:14:47.513Z,320
2017-10-11T11:15:48.283Z,393
2017-10-11T11:16:49.011Z,337
2017-10-11T11:17:49.825Z,331
2017-10-11T11:18:50.553Z,315
2017-10-11T11:19:51.399Z,399
2017-10-11T11:20:52.192Z,421
2017-10-11T11:21:52.983Z,399
2017-10-11T11:22:53.702Z,348
2017-10-11T11:23:54.464Z,343
2017-10-11T11:24:55.649Z,320
2017-10-11T11:25:56.414Z,405
2017-10-11T11:26:57.230Z,371
2017-10-11T11:27:58.038Z,405
2017-10-11T11:28:58.809Z,433
2017-10-11T11:30:00.215Z,438
2017-10-11T11:31:01.113Z,365
2017-10-11T11:32:02.723Z,309
2017-10-11T11:33:03.711Z,348
2017-10-11T11:34:04.514Z,371
2017-10-11T11:35:06.509Z,371
2017-10-11T11:36:07.619Z,331
2017-10-11T11:37:08.364Z,382
2017-10-11T11:38:10.188Z,315
2017-10-11T11:39:11.200Z,320
2017-10-11T11:40:12.303Z,320
2017-10-11T11:41:13.108Z,270
2017-10-11T11:42:13.844Z,343
2017-10-11T11:43:14.618Z,264
2017-10-11T11:44:15.369Z,281
2017-10-11T11:45:16.212Z,337
2017-10-11T11:46:17.034Z,354
2017-10-11T11:47:17.803Z,343
2017-10-11T11:48:18.530Z,343
2017-10-11T11:49:19.273Z,326
2017-10-11T11:50:20.104Z,343
2017-10-11T11:51:20.834Z,360
2017-10-11T11:52:21.581Z,331
2017-10-11T11:53:22.371Z,354
2017-10-11T11:54:23.125Z,416
2017-10-11T11:55:24.342Z,376
2017-10-11T11:56:25.461Z,399
2017-10-11T11:57:26.398Z,360
2017-10-11T11:58:27.106Z,320
2017-10-11T11:59:27.928Z,315
2017-10-11T12:00:28.731Z,303
2017-10-11T12:01:30.659Z,286
2017-10-11T12:02:31.600Z,326
2017-10-11T12:03:32.604Z,320
2017-10-11T12:04:33.375Z,309
2017-10-11T12:05:34.135Z,348
2017-10-11T12:06:34.873Z,348
2017-10-11T12:07:35.685Z,320
2017-10-11T12:08:36.769Z,376
2017-10-11T12:09:37.512Z,354
2017-10-11T12:10:38.238Z,331
2017-10-11T12:11:38.984Z,399
2017-10-11T12:12:39.766Z,461
2017-10-11T12:13:40.867Z,399
2017-10-11T12:14:41.609Z,388
2017-10-11T12:15:42.353Z,371
2017-10-11T12:16:43.094Z,331
2017-10-11T12:17:43.897Z,309
2017-10-11T12:18:44.623Z,292
2017-10-11T12:19:45.367Z,286
2017-10-11T12:20:46.180Z,286
2017-10-11T12:21:47.308Z,303
2017-10-11T12:22:48.106Z,230
2017-10-11T12:23:48.837Z,196
2017-10-11T12:24:49.644Z,230
2017-10-11T12:25:50.380Z,208
2017-10-11T12:26:51.460Z,241
2017-10-11T12:27:52.191Z,253
2017-10-11T12:28:52.919Z,241
2017-10-11T12:29:53.654Z,258
2017-10-11T12:30:54.385Z,236
2017-10-11T12:31:55.567Z,275
2017-10-11T12:32:56.312Z,213
2017-10-11T12:33:57.121Z,213
2017-10-11T12:34:57.943Z,225
2017-10-11T12:35:58.759Z,208
2017-10-11T12:36:59.640Z,196
2017-10-11T12:38:00.449Z,225
2017-10-11T12:39:01.195Z,241
2017-10-11T12:40:01.974Z,225
2017-10-11T12:41:02.715Z,253
2017-10-11T12:42:03.841Z,309
2017-10-11T12:43:04.726Z,292
2017-10-11T12:44:05.482Z,275
2017-10-11T12:45:06.221Z,247
2017-10-11T12:46:07.033Z,213
2017-10-11T12:47:08.265Z,202
2017-10-11T12:48:08.994Z,185
2017-10-11T12:49:09.730Z,146
2017-10-11T12:50:10.475Z,168
2017-10-11T12:51:11.211Z,157
2017-10-11T12:52:12.036Z,146
2017-10-11T12:53:12.857Z,157
2017-10-11T12:54:13.658Z,140
2017-10-11T12:55:14.439Z,157
2017-10-11T12:56:15.258Z,146
2017-10-11T12:57:16.144Z,140
2017-10-11T12:58:16.949Z,168
2017-10-11T12:59:17.689Z,185
2017-10-11T13:00:18.426Z,180
2017-10-11T13:01:19.227Z,185
2017-10-11T13:02:20.138Z,196
2017-10-11T13:03:20.953Z,196
2017-10-11T13:04:21.768Z,180
2017-10-11T13:05:22.501Z,146
2017-10-11T13:06:23.318Z,151
2017-10-11T13:07:24.354Z,180
2017-10-11T13:08:25.091Z,219
2017-10-11T13:09:25.887Z,298
2017-10-11T13:10:26.684Z,337
2017-10-11T13:11:27.429Z,303
2017-10-11T13:12:28.511Z,286
2017-10-11T13:13:29.306Z,258
2017-10-11T13:14:30.038Z,264
2017-10-11T13:15:30.821Z,208
2017-10-11T13:16:31.642Z,196
2017-10-11T13:17:32.483Z,219
2017-10-11T13:18:33.229Z,219
2017-10-11T13:19:34.045Z,191
2017-10-11T13:20:34.827Z,191
2017-10-11T13:21:35.571Z,157
2017-10-11T13:22:36.674Z,151
2017-10-11T13:23:37.422Z,129
2017-10-11T13:24:38.206Z,146
2017-10-11T13:25:39.018Z,123
2017-10-11T13:26:39.751Z,135
2017-10-11T13:27:40.848Z,129
2017-10-11T13:28:41.665Z,140
2017-10-11T13:29:43.441Z,151
2017-10-11T13:30:44.469Z,163
2017-10-11T13:31:45.437Z,185
2017-10-11T13:32:46.328Z,191
2017-10-11T13:33:47.062Z,196
2017-10-11T13:34:47.864Z,202
2017-10-11T13:35:48.636Z,230
2017-10-11T13:36:49.425Z,225
2017-10-11T13:37:50.923Z,196
2017-10-11T13:38:51.672Z,208
2017-10-11T13:39:52.451Z,208
2017-10-11T13:40:53.263Z,213
2017-10-11T13:41:54.073Z,219
2017-10-11T13:42:55.254Z,202
2017-10-11T13:43:56.010Z,202
2017-10-11T13:44:56.798Z,202
2017-10-11T13:45:57.580Z,208
2017-10-11T13:46:58.376Z,219
2017-10-11T13:47:59.956Z,225
2017-10-11T13:49:00.757Z,208
2017-10-11T13:50:01.484Z,219
2017-10-11T13:51:02.224Z,225
2017-10-11T13:52:02.982Z,236
2017-10-11T13:53:04.070Z,225
2017-10-11T13:54:04.855Z,241
2017-10-11T13:55:05.591Z,253
2017-10-11T13:56:06.327Z,258
2017-10-11T13:57:07.066Z,258
2017-10-11T13:58:08.259Z,270
2017-10-11T13:59:09.068Z,343
2017-10-11T14:00:09.796Z,371
2017-10-11T14:01:10.613Z,354
2017-10-11T14:02:11.349Z,298
2017-10-11T14:03:13.284Z,275
2017-10-11T14:04:14.119Z,275
2017-10-11T14:05:14.858Z,247
2017-10-11T14:06:15.594Z,230
2017-10-11T14:07:16.337Z,208
2017-10-11T14:08:17.830Z,191
2017-10-11T14:09:18.563Z,196
2017-10-11T14:10:19.365Z,174
2017-10-11T14:11:20.116Z,180
2017-10-11T14:12:20.844Z,168
2017-10-11T14:13:21.887Z,146
2017-10-11T14:14:22.628Z,140
2017-10-11T14:15:23.355Z,112
2017-10-11T14:16:24.083Z,112
2017-10-11T14:17:24.814Z,123
2017-10-11T14:18:25.931Z,140
2017-10-11T14:19:26.667Z,168
2017-10-11T14:20:27.472Z,185
2017-10-11T14:21:28.273Z,157
2017-10-11T14:22:29.018Z,129
2017-10-11T14:23:29.867Z,118
2017-10-11T14:24:30.615Z,106
2017-10-11T14:25:31.348Z,118